Pagrindinis puslapis
METAR-TAF:

METAR-TAF

Oro uostai :

Palacios Municipal Airport

Palacios, Teksasas, Jungtinės Amerikos Valstijos

platuma: 28-43-39N, ilguma: 096-15-03W, Aukštis: 5 m

Dabartinis oras

Ataskaita buvo paskelbta 10 minutes, ne 04:52 UTC
Vėjas 4 kt iš Rytų/Šiaurės Rytų
Temperatūra 20°C
Drėgmė 83%
Slėgis 1023 hPa
Matomumas: 16.1 km
Su prošvaistėmis ne aukštis 5000 ft

METAR: KPSX 140452Z AUTO 06004KT 10SM BKN050 20/17 A3020 RMK AO2 SLP224 T02000172

Laikas: 00:02 (05:02 UTC)


TAF: trūkstamas

Orai ataskaitas ir orų prognozės (METAR, TAF).

turimą stotys yra geltonos ir raudonos taškus žemėlapyje.

Perkelti pele per norėdami pamatyti stoties vardą.

Tada spustelėkite, norėdami matyti oro stebėjimo ir prognozės.

Norėdami pakeisti žemėlapį: spustelėkite ant žalios mygtukų su juodo kryžiaus žemyn,; žalią mygtuką su brūkšneliu, jei norite nutolinti; arba žalių rodyklių gretimoms žemėlapius.


METAR-TAF: